Time;durP1;ratioP1;P1;durP2;ratioP2;P2;SDS_P1;SDS_P2;PMS_P1;PMS_P2;Temp;Humidity;BMP_temperature;BMP_pressure;BME280_temperature;BME280_humidity;BME280_pressure;Samples;Min_cycle;Max_cycle;Signal;HPM_P1;HPM_P2
2021/10/14 00:00:18;;;;;;;;;;;;;;;10.51;76.67;100656.75;5031621;28;20718;-71
2021/10/14 00:02:43;;;;;;;;;;;;;;;10.47;76.81;100656.91;5050177;28;20411;-71
2021/10/14 00:05:09;;;;;;;;;;;;;;;10.48;76.90;100656.00;5049137;28;19999;-73
2021/10/14 00:07:34;;;;;;;;;;;;;;;10.46;76.77;100655.16;5050170;28;19917;-72
2021/10/14 00:09:59;;;;;;;;;;;;;;;10.45;76.58;100667.50;5031709;28;20437;-72
2021/10/14 00:12:24;;;;;;;;;;;;;;;10.44;76.95;100663.16;5050238;28;19952;-72
2021/10/14 00:14:50;;;;;;;;;;;;;;;10.43;76.71;100658.78;5050112;28;19956;-73
2021/10/14 00:17:21;;;;;;;;;;;;;;;10.38;76.95;100662.50;5050722;28;20003;-73
2021/10/14 00:19:46;;;;;;;;;;;;;;;10.37;77.20;100668.69;5032215;28;19921;-72
2021/10/14 00:22:11;;;;;;;;;;;;;;;10.33;77.13;100665.28;5049468;28;20308;-72
2021/10/14 00:24:37;;;;;;;;;;;;;;;10.33;77.15;100654.75;5031766;28;20011;-73
2021/10/14 00:27:02;;;;;;;;;;;;;;;10.30;77.42;100644.31;5032496;28;20292;-73
2021/10/14 00:29:27;;;;;;;;;;;;;;;10.27;77.27;100650.50;5051507;28;19927;-73
2021/10/14 00:31:52;;;;;;;;;;;;;;;10.25;77.50;100648.84;5031424;28;19924;-72
2021/10/14 00:34:18;;;;;;;;;;;;;;;10.27;77.19;100647.03;5031865;28;19959;-74
2021/10/14 00:36:43;;;;;;;;;;;;;;;10.27;77.15;100642.59;5049635;28;19917;-73
2021/10/14 00:39:08;;;;;;;;;;;;;;;10.30;77.14;100649.59;5049853;28;19928;-72
2021/10/14 00:41:33;;;;;;;;;;;;;;;10.30;76.66;100647.81;5065154;28;20008;-72
2021/10/14 00:43:58;;;;;;;;;;;;;;;10.31;77.04;100636.38;5069514;28;19916;-72
2021/10/14 00:46:24;;;;;;;;;;;;;;;10.34;76.94;100635.41;5069995;28;19948;-72
2021/10/14 00:48:50;;;;;;;;;;;;;;;10.32;76.86;100637.22;5069707;28;20429;-72
2021/10/14 00:51:15;;;;;;;;;;;;;;;10.35;76.74;100637.09;5050390;28;19966;-72
2021/10/14 00:53:40;;;;;;;;;;;;;;;10.37;76.79;100637.91;5069581;28;19970;-72
2021/10/14 00:56:06;;;;;;;;;;;;;;;10.36;76.81;100630.94;5070513;28;19916;-71
2021/10/14 00:58:33;;;;;;;;;;;;;;;10.37;76.76;100634.44;5069520;28;19924;-73
2021/10/14 01:00:59;;;;;;;;;;;;;;;10.36;76.82;100630.94;5042840;28;19927;-74
2021/10/14 01:03:24;;;;;;;;;;;;;;;10.36;76.54;100630.06;5056511;28;20312;-72
2021/10/14 01:05:49;;;;;;;;;;;;;;;10.37;76.29;100626.53;5051526;28;19922;-72
2021/10/14 01:08:15;;;;;;;;;;;;;;;10.38;76.56;100623.81;5069413;28;20019;-70
2021/10/14 01:10:41;;;;;;;;;;;;;;;10.40;76.25;100622.00;5065320;28;19948;-70
2021/10/14 01:13:07;;;;;;;;;;;;;;;10.38;76.10;100617.69;5067348;28;19955;-71
2021/10/14 01:15:32;;;;;;;;;;;;;;;10.39;75.87;100614.16;5052336;28;19920;-71
2021/10/14 01:17:57;;;;;;;;;;;;;;;10.40;75.84;100614.09;5071916;28;20387;-73
2021/10/14 01:20:23;;;;;;;;;;;;;;;10.41;75.62;100599.13;5071550;28;20454;-72
2021/10/14 01:22:48;;;;;;;;;;;;;;;10.41;75.33;100607.91;5070712;28;19927;-71
2021/10/14 01:25:13;;;;;;;;;;;;;;;10.43;75.23;100610.47;5069254;28;19924;-71
2021/10/14 01:27:39;;;;;;;;;;;;;;;10.45;75.17;100596.31;5051317;28;19927;-74
2021/10/14 01:30:05;;;;;;;;;;;;;;;10.46;75.08;100595.44;5069118;28;20005;-71
2021/10/14 01:32:31;;;;;;;;;;;;;;;10.47;75.05;100594.50;5068047;28;19916;-72
2021/10/14 01:34:56;;;;;;;;;;;;;;;10.47;74.97;100594.50;5069070;28;20298;-72
2021/10/14 01:37:21;;;;;;;;;;;;;;;10.49;74.92;100597.94;5051056;28;19917;-71
2021/10/14 01:39:46;;;;;;;;;;;;;;;10.48;74.51;100587.44;5050934;28;19920;-72
2021/10/14 01:42:12;;;;;;;;;;;;;;;10.51;74.74;100590.00;5068215;28;19923;-71
2021/10/14 01:44:37;;;;;;;;;;;;;;;10.54;74.35;100589.88;5068438;28;19952;-72
2021/10/14 01:47:02;;;;;;;;;;;;;;;10.56;74.16;100584.53;5068910;28;19920;-72
2021/10/14 01:49:27;;;;;;;;;;;;;;;10.56;74.29;100579.25;5067828;28;19923;-70
2021/10/14 01:51:53;;;;;;;;;;;;;;;10.55;73.89;100580.19;5065989;28;20318;-72
2021/10/14 01:54:18;;;;;;;;;;;;;;;10.57;74.09;100579.22;5033199;28;20375;-71
2021/10/14 01:56:43;;;;;;;;;;;;;;;10.56;74.02;100582.78;5048918;28;20329;-73
2021/10/14 01:59:08;;;;;;;;;;;;;;;10.53;74.07;100578.47;5051648;28;20415;-73
2021/10/14 02:01:34;;;;;;;;;;;;;;;10.59;74.16;100581.81;5048456;28;20415;-71
2021/10/14 02:03:59;;;;;;;;;;;;;;;10.63;73.87;100584.28;5048821;28;19960;-71
2021/10/14 02:06:24;;;;;;;;;;;;;;;10.62;73.42;100582.53;5048669;28;20321;-73
2021/10/14 02:08:49;;;;;;;;;;;;;;;10.64;73.87;100577.22;5048833;28;19920;-75
2021/10/14 02:11:15;;;;;;;;;;;;;;;10.65;73.75;100581.56;5048245;28;19917;-73
2021/10/14 02:13:40;;;;;;;;;;;;;;;10.62;73.93;100576.41;5048579;28;19917;-72
2021/10/14 02:16:05;;;;;;;;;;;;;;;10.61;74.07;100582.59;5031298;28;20010;-72
2021/10/14 02:18:30;;;;;;;;;;;;;;;10.64;73.51;100578.06;5048760;28;19931;-71
2021/10/14 02:20:56;;;;;;;;;;;;;;;10.64;73.64;100587.75;5047790;28;19924;-71
2021/10/14 02:23:21;;;;;;;;;;;;;;;10.64;73.60;100585.97;5030665;28;20407;-73
2021/10/14 02:25:46;;;;;;;;;;;;;;;10.66;73.51;100588.56;5048448;28;19917;-72
2021/10/14 02:28:11;;;;;;;;;;;;;;;10.63;73.42;100578.13;5048330;28;19924;-72
2021/10/14 02:30:37;;;;;;;;;;;;;;;10.65;73.70;100584.19;5030151;28;19935;-72
2021/10/14 02:33:02;;;;;;;;;;;;;;;10.64;73.67;100585.97;5048330;28;19917;-72
2021/10/14 02:35:27;;;;;;;;;;;;;;;10.65;73.50;100586.84;5048597;28;19923;-72
2021/10/14 02:37:52;;;;;;;;;;;;;;;10.61;73.78;100582.59;5048548;28;20442;-72
2021/10/14 02:40:17;;;;;;;;;;;;;;;10.59;73.71;100593.19;5047465;28;20388;-74
2021/10/14 02:42:43;;;;;;;;;;;;;;;10.59;73.82;100593.19;5048155;28;19975;-72
2021/10/14 02:45:08;;;;;;;;;;;;;;;10.62;74.14;100593.09;5050230;28;19923;-73
2021/10/14 02:47:33;;;;;;;;;;;;;;;10.58;73.56;100580.91;5052795;28;19916;-72
2021/10/14 02:49:59;;;;;;;;;;;;;;;10.53;73.49;100588.13;5055315;28;19942;-72
2021/10/14 02:52:24;;;;;;;;;;;;;;;10.52;73.69;100579.38;5052009;28;20375;-72
2021/10/14 02:54:49;;;;;;;;;;;;;;;10.51;73.49;100580.31;5052775;28;19917;-72
2021/10/14 02:57:14;;;;;;;;;;;;;;;10.51;73.63;100577.66;5052071;28;19916;-72
2021/10/14 02:59:40;;;;;;;;;;;;;;;10.49;73.54;100584.75;5056872;28;19920;-72
2021/10/14 03:02:05;;;;;;;;;;;;;;;10.51;73.49;100576.81;5054936;28;19924;-72
2021/10/14 03:04:30;;;;;;;;;;;;;;;10.53;73.70;100575.84;5056147;28;19916;-72
2021/10/14 03:06:55;;;;;;;;;;;;;;;10.56;73.44;100577.50;5058673;28;19935;-71
2021/10/14 03:09:20;;;;;;;;;;;;;;;10.59;73.59;100574.75;5051762;28;19928;-72
2021/10/14 03:11:46;;;;;;;;;;;;;;;10.64;73.17;100585.13;5050476;28;19917;-70
2021/10/14 03:14:11;;;;;;;;;;;;;;;10.66;72.64;100580.66;5051396;28;19927;-72
2021/10/14 03:16:36;;;;;;;;;;;;;;;10.67;73.41;100580.59;5051392;28;19921;-72
2021/10/14 03:19:01;;;;;;;;;;;;;;;10.68;72.59;100577.06;5051622;28;19929;-72
2021/10/14 03:21:26;;;;;;;;;;;;;;;10.70;72.11;100585.75;5050508;28;20027;-73
2021/10/14 03:23:52;;;;;;;;;;;;;;;10.69;72.05;100588.47;5051396;28;19944;-73
2021/10/14 03:26:17;;;;;;;;;;;;;;;10.69;72.41;100588.47;5033598;28;19928;-72
2021/10/14 03:28:43;;;;;;;;;;;;;;;10.69;72.05;100584.03;5051221;28;19917;-73
2021/10/14 03:31:08;;;;;;;;;;;;;;;10.68;72.05;100587.59;5032676;28;19998;-72
2021/10/14 03:33:33;;;;;;;;;;;;;;;10.68;72.09;100592.00;5050303;28;19923;-72
2021/10/14 03:35:58;;;;;;;;;;;;;;;10.70;72.10;100584.88;5050861;28;20272;-73
2021/10/14 03:38:24;;;;;;;;;;;;;;;10.68;72.45;100589.34;5051178;28;19921;-72
2021/10/14 03:40:50;;;;;;;;;;;;;;;10.65;71.87;100590.31;5050243;28;19923;-72
2021/10/14 03:43:15;;;;;;;;;;;;;;;10.65;72.16;100586.84;5051109;28;19917;-72
2021/10/14 03:45:40;;;;;;;;;;;;;;;10.65;72.02;100586.84;5033057;28;19917;-72
2021/10/14 03:48:05;;;;;;;;;;;;;;;10.65;72.18;100587.69;5034572;28;19924;-73
2021/10/14 03:50:31;;;;;;;;;;;;;;;10.66;72.43;100592.06;5068304;28;20019;-73
2021/10/14 03:52:56;;;;;;;;;;;;;;;10.64;72.08;100587.75;5071766;28;19931;-73
2021/10/14 03:55:21;;;;;;;;;;;;;;;10.66;72.42;100599.13;5074672;28;20007;-73
2021/10/14 03:57:46;;;;;;;;;;;;;;;10.65;72.34;100592.09;5070619;28;20008;-73
2021/10/14 04:00:12;;;;;;;;;;;;;;;10.66;72.50;100599.13;5052024;28;20315;-73
2021/10/14 04:02:37;;;;;;;;;;;;;;;10.63;72.72;100599.22;5049536;28;20326;-73
2021/10/14 04:05:03;;;;;;;;;;;;;;;10.59;72.41;100602.91;5052626;28;19974;-72
2021/10/14 04:07:28;;;;;;;;;;;;;;;10.57;72.55;100607.34;5052532;28;19921;-73
2021/10/14 04:09:54;;;;;;;;;;;;;;;10.57;72.75;100599.44;5070385;28;19917;-72
2021/10/14 04:12:19;;;;;;;;;;;;;;;10.52;73.36;100603.09;5069504;28;20449;-73
2021/10/14 04:14:44;;;;;;;;;;;;;;;10.50;73.89;100606.72;5070176;28;20015;-73
2021/10/14 04:17:09;;;;;;;;;;;;;;;10.49;74.17;100605.84;5070095;28;20375;-73
2021/10/14 04:19:35;;;;;;;;;;;;;;;10.49;74.18;100607.63;5070483;28;19927;-72
2021/10/14 04:22:00;;;;;;;;;;;;;;;10.46;75.01;100616.53;5069107;28;20334;-72
2021/10/14 04:24:28;;;;;;;;;;;;;;;10.41;75.13;100614.94;5051732;28;19924;-73
2021/10/14 04:26:53;;;;;;;;;;;;;;;10.35;75.57;100610.75;5071298;28;20407;-73
2021/10/14 04:29:19;;;;;;;;;;;;;;;10.32;76.00;100613.50;5071945;28;19917;-73
2021/10/14 04:31:45;;;;;;;;;;;;;;;10.30;75.90;100617.97;5069833;28;20398;-73
2021/10/14 04:34:10;;;;;;;;;;;;;;;10.27;76.07;100610.13;5051983;28;19917;-73
2021/10/14 04:36:36;;;;;;;;;;;;;;;10.25;75.62;100612.81;5052683;28;19920;-73
2021/10/14 04:39:01;;;;;;;;;;;;;;;10.20;75.92;100608.63;5052069;28;19921;-73
2021/10/14 04:41:26;;;;;;;;;;;;;;;10.17;75.71;100606.94;5068829;28;19974;-74
2021/10/14 04:43:51;;;;;;;;;;;;;;;10.13;75.93;100605.31;5069759;28;20407;-72
2021/10/14 04:46:17;;;;;;;;;;;;;;;10.07;76.08;100601.13;5051737;28;19925;-73
2021/10/14 04:48:42;;;;;;;;;;;;;;;10.04;76.65;100601.25;5069382;28;19978;-72
2021/10/14 04:51:07;;;;;;;;;;;;;;;10.01;76.67;100598.69;5068736;28;19921;-73
2021/10/14 04:53:32;;;;;;;;;;;;;;;9.96;77.04;100591.88;5069460;28;19916;-71
2021/10/14 04:55:57;;;;;;;;;;;;;;;9.93;77.65;100592.84;5074232;28;19939;-73
2021/10/14 04:58:23;;;;;;;;;;;;;;;9.94;77.56;100599.81;5072853;28;19966;-72
2021/10/14 05:00:48;;;;;;;;;;;;;;;9.93;77.29;100595.47;5068799;28;19924;-70
2021/10/14 05:03:13;;;;;;;;;;;;;;;9.94;77.09;100593.69;5069816;28;20330;-71
2021/10/14 05:05:38;;;;;;;;;;;;;;;9.96;77.49;100583.97;5051183;28;20276;-72
2021/10/14 05:08:04;;;;;;;;;;;;;;;9.98;77.38;100590.91;5068619;28;19916;-71
2021/10/14 05:10:30;;;;;;;;;;;;;;;10.00;76.99;100583.81;5071426;28;20011;-73
2021/10/14 05:12:56;;;;;;;;;;;;;;;10.07;76.66;100577.44;5071561;28;19924;-72
2021/10/14 05:15:21;;;;;;;;;;;;;;;10.06;77.45;100580.09;5069603;28;19980;-72
2021/10/14 05:17:46;;;;;;;;;;;;;;;10.04;76.60;100572.28;5051483;28;19925;-73
2021/10/14 05:20:11;;;;;;;;;;;;;;;10.00;76.70;100573.28;5068569;28;19921;-72
2021/10/14 05:22:37;;;;;;;;;;;;;;;9.94;77.00;100578.75;5052046;28;19926;-72
2021/10/14 05:25:02;;;;;;;;;;;;;;;9.85;76.86;100579.06;5069774;28;20372;-72
2021/10/14 05:27:27;;;;;;;;;;;;;;;9.83;77.38;100581.75;5060371;28;19989;-72
2021/10/14 05:29:52;;;;;;;;;;;;;;;9.85;77.62;100587.81;5051556;28;19917;-73
2021/10/14 05:32:18;;;;;;;;;;;;;;;9.90;77.81;100582.41;5013895;28;19944;-73
2021/10/14 05:34:43;;;;;;;;;;;;;;;9.89;77.58;100584.19;5031240;28;19921;-72
2021/10/14 05:37:08;;;;;;;;;;;;;;;9.88;77.70;100582.44;5049389;28;19956;-72
2021/10/14 05:39:33;;;;;;;;;;;;;;;9.83;77.16;100584.38;5050744;28;20006;-72
2021/10/14 05:41:59;;;;;;;;;;;;;;;9.79;77.18;100588.00;5050535;28;20399;-72
2021/10/14 05:44:24;;;;;;;;;;;;;;;9.76;77.48;100582.84;5048653;28;19948;-73
2021/10/14 05:46:49;;;;;;;;;;;;;;;9.72;77.77;100583.00;5031200;28;19917;-74
2021/10/14 05:49:14;;;;;;;;;;;;;;;9.68;77.67;100585.75;5048829;28;20327;-73
2021/10/14 05:51:40;;;;;;;;;;;;;;;9.65;77.71;100579.72;5030242;28;19917;-73
2021/10/14 05:54:05;;;;;;;;;;;;;;;9.63;78.10;100576.28;5031147;28;19971;-73
2021/10/14 05:56:30;;;;;;;;;;;;;;;9.63;78.65;100577.13;5049209;28;19917;-72
2021/10/14 05:58:55;;;;;;;;;;;;;;;9.51;78.06;100577.53;5049125;28;19925;-73
2021/10/14 06:01:21;;;;;;;;;;;;;;;9.55;78.41;100573.03;5032866;28;19917;-70
2021/10/14 06:03:46;;;;;;;;;;;;;;;9.61;78.49;100578.09;5048565;28;19924;-71
2021/10/14 06:06:11;;;;;;;;;;;;;;;9.61;78.19;100576.31;5048762;28;20086;-72
2021/10/14 06:08:37;;;;;;;;;;;;;;;9.65;78.94;100577.97;5049953;28;19924;-70
2021/10/14 06:11:02;;;;;;;;;;;;;;;9.67;78.37;100573.50;5047806;28;20383;-72
2021/10/14 06:13:27;;;;;;;;;;;;;;;9.72;77.69;100568.09;5049582;28;20372;-72
2021/10/14 06:15:52;;;;;;;;;;;;;;;9.68;77.58;100567.31;5036321;28;19917;-71
2021/10/14 06:18:18;;;;;;;;;;;;;;;9.71;77.73;100571.63;5037975;28;19921;-73
2021/10/14 06:20:43;;;;;;;;;;;;;;;9.72;78.38;100572.47;5035554;28;20395;-72
2021/10/14 06:23:08;;;;;;;;;;;;;;;9.71;78.26;100573.41;5052608;28;19956;-71
2021/10/14 06:25:34;;;;;;;;;;;;;;;9.75;78.43;100567.97;5034806;28;19948;-71
2021/10/14 06:27:59;;;;;;;;;;;;;;;9.83;78.19;100570.34;5052183;28;19957;-71
2021/10/14 06:30:24;;;;;;;;;;;;;;;9.82;78.09;100573.88;5051834;28;19924;-72
2021/10/14 06:32:49;;;;;;;;;;;;;;;9.86;78.53;100576.38;5034226;28;19921;-73
2021/10/14 06:35:15;;;;;;;;;;;;;;;9.84;78.24;100577.34;5051867;28;19917;-72
2021/10/14 06:37:40;;;;;;;;;;;;;;;9.83;78.16;100567.72;5052289;28;20007;-73
2021/10/14 06:40:05;;;;;;;;;;;;;;;9.82;78.01;100573.88;5034595;28;20054;-72
2021/10/14 06:42:31;;;;;;;;;;;;;;;9.79;77.46;100569.56;5033787;28;19917;-72
2021/10/14 06:44:56;;;;;;;;;;;;;;;9.79;77.91;100569.56;5034635;28;20376;-72
2021/10/14 06:47:21;;;;;;;;;;;;;;;9.79;77.67;100569.56;5052709;28;19917;-72
2021/10/14 06:49:48;;;;;;;;;;;;;;;9.73;78.29;100569.81;5052161;28;20388;-72
2021/10/14 06:52:14;;;;;;;;;;;;;;;9.73;78.33;100563.69;5054271;28;19924;-73
2021/10/14 06:54:39;;;;;;;;;;;;;;;9.74;78.70;100570.66;5034879;28;19917;-72
2021/10/14 06:57:07;;;;;;;;;;;;;;;9.70;77.99;100579.56;5056193;28;20276;-72
2021/10/14 06:59:32;;;;;;;;;;;;;;;9.68;78.31;100575.22;5058176;28;19947;-71
2021/10/14 07:01:57;;;;;;;;;;;;;;;9.68;78.37;100580.47;5033072;28;21019;-70
2021/10/14 07:04:23;;;;;;;;;;;;;;;9.64;78.11;100570.09;5052839;28;19920;-72
2021/10/14 07:06:48;;;;;;;;;;;;;;;9.64;78.38;100564.84;5065960;28;20790;-71
2021/10/14 07:09:13;;;;;;;;;;;;;;;9.70;78.95;100566.38;5052853;28;20304;-70
2021/10/14 07:11:43;;;;;;;;;;;;;;;9.74;79.17;100571.50;5045967;28;19921;-71
2021/10/14 07:14:09;;;;;;;;;;;;;;;9.80;79.01;100570.47;5046469;28;20385;-70
2021/10/14 07:16:34;;;;;;;;;;;;;;;9.81;79.18;100573.03;5044973;28;19925;-72
2021/10/14 07:18:59;;;;;;;;;;;;;;;9.77;79.52;100565.28;5018672;28;19924;-72
2021/10/14 07:21:25;;;;;;;;;;;;;;;9.79;79.22;100563.47;5036721;28;19921;-71
2021/10/14 07:23:50;;;;;;;;;;;;;;;9.75;79.75;100570.63;5049556;28;19993;-72
2021/10/14 07:26:15;;;;;;;;;;;;;;;9.78;79.90;100565.25;5046808;28;19921;-73
2021/10/14 07:28:41;;;;;;;;;;;;;;;9.83;79.24;100571.22;5034021;28;19924;-72
2021/10/14 07:31:06;;;;;;;;;;;;;;;9.85;78.93;100572.03;5064380;28;20019;-73
2021/10/14 07:33:31;;;;;;;;;;;;;;;9.83;79.62;100560.69;5051008;28;19963;-74
2021/10/14 07:35:56;;;;;;;;;;;;;;;9.91;79.77;100565.69;5027791;28;20396;-75
2021/10/14 07:38:21;;;;;;;;;;;;;;;9.99;79.47;100571.56;5010651;28;20507;-72
2021/10/14 07:40:47;;;;;;;;;;;;;;;9.98;78.93;100571.59;5044500;28;20719;-72
2021/10/14 07:43:13;;;;;;;;;;;;;;;9.92;79.07;100561.25;5057809;28;19925;-74
2021/10/14 07:45:39;;;;;;;;;;;;;;;9.93;79.05;100569.13;5065149;28;20002;-73
2021/10/14 07:48:04;;;;;;;;;;;;;;;10.01;79.30;100577.63;5040060;28;19920;-72
2021/10/14 07:50:30;;;;;;;;;;;;;;;10.08;79.66;100568.59;5026356;28;20334;-73
2021/10/14 07:52:55;;;;;;;;;;;;;;;10.20;79.10;100575.22;5026091;28;19932;-72
2021/10/14 07:55:20;;;;;;;;;;;;;;;10.28;78.96;100573.19;5045270;28;20360;-70
2021/10/14 07:57:45;;;;;;;;;;;;;;;10.37;78.52;100571.16;5062562;28;19924;-70
2021/10/14 08:00:11;;;;;;;;;;;;;;;10.39;78.37;100567.56;5063985;28;19952;-68
2021/10/14 08:02:36;;;;;;;;;;;;;;;10.37;78.53;100566.75;5065061;28;19959;-69
2021/10/14 08:05:02;;;;;;;;;;;;;;;10.40;78.69;100571.06;5064009;28;19974;-70
2021/10/14 08:07:27;;;;;;;;;;;;;;;10.45;77.67;100567.31;5063892;28;19924;-71
2021/10/14 08:09:53;;;;;;;;;;;;;;;10.51;77.54;100567.13;5064181;28;19978;-69
2021/10/14 08:12:19;;;;;;;;;;;;;;;10.56;77.31;100574.88;5045840;28;20450;-69
2021/10/14 08:14:44;;;;;;;;;;;;;;;10.64;77.73;100569.31;5046141;28;19920;-71
2021/10/14 08:17:09;;;;;;;;;;;;;;;10.69;77.13;100570.00;5042115;28;19928;-68
2021/10/14 08:19:34;;;;;;;;;;;;;;;10.76;76.59;100568.00;5025519;28;19931;-69
2021/10/14 08:22:00;;;;;;;;;;;;;;;10.77;76.96;100573.19;5025696;28;19933;-70
2021/10/14 08:24:25;;;;;;;;;;;;;;;10.78;76.46;100574.94;5044555;28;19927;-69
2021/10/14 08:26:50;;;;;;;;;;;;;;;10.85;77.01;100571.13;5044068;28;19921;-70
2021/10/14 08:29:16;;;;;;;;;;;;;;;10.92;76.33;100569.97;5044243;28;20388;-70
2021/10/14 08:31:42;;;;;;;;;;;;;;;10.93;75.64;100573.50;5043608;28;19928;-70
2021/10/14 08:34:07;;;;;;;;;;;;;;;10.90;75.83;100558.66;5044563;28;19927;-69
2021/10/14 08:36:32;;;;;;;;;;;;;;;10.85;76.01;100575.53;5043745;28;19921;-69
2021/10/14 08:38:57;;;;;;;;;;;;;;;10.81;75.85;100569.53;5043755;28;19932;-74
2021/10/14 08:41:22;;;;;;;;;;;;;;;10.81;76.39;100560.78;5042992;28;19920;-69
2021/10/14 08:43:50;;;;;;;;;;;;;;;10.85;76.62;100571.13;5025583;28;20323;-71
2021/10/14 08:46:15;;;;;;;;;;;;;;;10.91;75.83;100572.69;5043836;28;19964;-69
2021/10/14 08:48:41;;;;;;;;;;;;;;;10.96;75.27;100576.88;5026455;28;19968;-71
2021/10/14 08:51:06;;;;;;;;;;;;;;;10.96;75.51;100565.47;5043966;28;19921;-69
2021/10/14 08:53:32;;;;;;;;;;;;;;;10.98;75.59;100574.19;5044118;28;19921;-71
2021/10/14 08:55:57;;;;;;;;;;;;;;;11.04;75.19;100567.78;5043619;28;19917;-67
2021/10/14 08:58:22;;;;;;;;;;;;;;;11.12;75.57;100566.59;5044498;28;20439;-68
2021/10/14 09:01:06;;;;;;;;;;;;;;;11.20;75.83;100568.94;5042468;28;20304;-73
2021/10/14 09:03:31;;;;;;;;;;;;;;;11.20;74.64;100579.50;5042456;28;19925;-74
2021/10/14 09:05:56;;;;;;;;;;;;;;;11.14;74.21;100575.28;5043931;28;20499;-73
2021/10/14 09:08:34;;;;;;;;;;;;;;;11.12;74.91;100571.88;5043804;28;20346;-73
2021/10/14 09:11:08;;;;;;;;;;;;;;;11.10;74.88;100572.81;5042469;28;20190;-73
2021/10/14 09:13:34;;;;;;;;;;;;;;;11.14;74.99;100570.00;5025542;28;19920;-75
2021/10/14 09:16:18;;;;;;;;;;;;;;;11.17;74.75;100569.03;5043110;28;19975;-74
2021/10/14 09:18:43;;;;;;;;;;;;;;;11.17;74.34;100579.59;5060981;28;20014;-74
2021/10/14 09:21:19;;;;;;;;;;;;;;;11.17;74.40;100564.63;5044798;28;19945;-75
2021/10/14 09:23:44;;;;;;;;;;;;;;;11.13;74.96;100565.66;5063318;28;20010;-73
2021/10/14 09:26:09;;;;;;;;;;;;;;;11.17;74.65;100550.56;5063307;28;20070;-73
2021/10/14 09:28:34;;;;;;;;;;;;;;;11.20;74.64;100557.50;5063525;28;20424;-74
2021/10/14 09:31:04;;;;;;;;;;;;;;;11.28;74.34;100556.28;5062812;28;19916;-74
2021/10/14 09:33:31;;;;;;;;;;;;;;;11.29;74.06;100552.72;5063393;28;20005;-73
2021/10/14 09:36:10;;;;;;;;;;;;;;;11.37;74.29;100560.31;5063108;28;19919;-73
2021/10/14 09:38:35;;;;;;;;;;;;;;;11.53;74.31;100561.44;5045063;28;19917;-73
2021/10/14 09:41:01;;;;;;;;;;;;;;;11.64;73.67;100563.66;5062490;28;19935;-73
2021/10/14 09:43:27;;;;;;;;;;;;;;;11.69;72.64;100568.72;5062651;28;19927;-73
2021/10/14 09:45:52;;;;;;;;;;;;;;;11.73;72.75;100555.31;5063456;28;19920;-72
2021/10/14 09:48:18;;;;;;;;;;;;;;;11.80;72.40;100559.44;5063858;28;20411;-73
2021/10/14 09:50:44;;;;;;;;;;;;;;;11.91;72.36;100553.75;5067478;28;19999;-74
2021/10/14 09:53:14;;;;;;;;;;;;;;;12.11;72.73;100559.94;5070784;28;19920;-73
2021/10/14 09:55:40;;;;;;;;;;;;;;;12.28;71.63;100556.56;5062594;28;20376;-73
2021/10/14 09:58:05;;;;;;;;;;;;;;;12.38;71.15;100557.88;5048230;28;19920;-73
2021/10/14 10:00:30;;;;;;;;;;;;;;;12.51;70.63;100555.56;5031109;28;19928;-72
2021/10/14 10:02:56;;;;;;;;;;;;;;;12.64;70.63;100551.41;5047558;28;19924;-73
2021/10/14 10:05:22;;;;;;;;;;;;;;;12.75;69.49;100548.28;5046889;28;20023;-74
2021/10/14 10:07:49;;;;;;;;;;;;;;;12.93;69.31;100550.06;5046451;28;19927;-73
2021/10/14 10:10:18;;;;;;;;;;;;;;;13.14;68.20;100544.69;5049064;28;19932;-72
2021/10/14 10:12:45;;;;;;;;;;;;;;;13.79;66.20;100539.78;5051115;28;20707;-73
2021/10/14 10:15:10;;;;;;;;;;;;;;;14.32;65.07;100534.38;5052226;28;19924;-72
2021/10/14 10:17:39;;;;;;;;;;;;;;;14.49;63.64;100529.94;5055865;28;19925;-73
2021/10/14 10:20:05;;;;;;;;;;;;;;;14.63;63.42;100535.41;5066222;28;19982;-73
2021/10/14 10:22:33;;;;;;;;;;;;;;;14.77;62.61;100538.19;5031995;28;19928;-74
2021/10/14 10:25:18;;;;;;;;;;;;;;;14.88;62.10;100536.72;5066884;28;20027;-72
2021/10/14 10:27:44;;;;;;;;;;;;;;;14.79;61.88;100533.66;5067260;28;19920;-73
2021/10/14 10:30:09;;;;;;;;;;;;;;;14.91;62.26;100533.91;5066734;28;19943;-73
2021/10/14 10:32:41;;;;;;;;;;;;;;;15.12;61.86;100535.38;5066846;28;20326;-74
2021/10/14 10:35:07;;;;;;;;;;;;;;;15.22;61.53;100525.06;5067143;28;19986;-72
2021/10/14 10:37:47;;;;;;;;;;;;;;;15.51;61.23;100528.72;5066601;28;19975;-73
2021/10/14 10:40:13;;;;;;;;;;;;;;;15.71;60.01;100518.78;5065866;28;19946;-74
2021/10/14 10:42:47;;;;;;;;;;;;;;;15.70;59.86;100522.34;5047920;28;19969;-73
2021/10/14 10:45:22;;;;;;;;;;;;;;;15.56;60.48;100526.66;5049074;28;20652;-73
2021/10/14 10:47:53;;;;;;;;;;;;;;;15.48;60.78;100517.41;5065943;28;20336;-74
2021/10/14 10:50:18;;;;;;;;;;;;;;;15.39;60.47;100524.97;5047837;28;19951;-73
2021/10/14 10:52:44;;;;;;;;;;;;;;;15.33;60.65;100520.00;5066761;28;20442;-73
2021/10/14 10:55:21;;;;;;;;;;;;;;;15.30;61.54;100511.34;5066321;28;19960;-73
2021/10/14 10:57:48;;;;;;;;;;;;;;;15.28;61.54;100511.44;5066208;28;20693;-75
2021/10/14 11:00:15;;;;;;;;;;;;;;;15.31;61.60;100497.13;5064198;28;19932;-74
2021/10/14 11:02:40;;;;;;;;;;;;;;;15.29;61.83;100491.91;5049065;28;20328;-74
2021/10/14 11:05:06;;;;;;;;;;;;;;;15.27;61.64;100499.09;5029036;28;19988;-73
2021/10/14 11:07:31;;;;;;;;;;;;;;;15.20;61.46;100497.75;5049251;28;19921;-74
2021/10/14 11:09:56;;;;;;;;;;;;;;;15.23;62.33;100490.47;5046230;28;20594;-74
2021/10/14 11:12:21;;;;;;;;;;;;;;;15.16;61.82;100496.19;5027399;28;19916;-75
2021/10/14 11:14:47;;;;;;;;;;;;;;;15.11;61.58;100490.28;5046282;28;19928;-73
2021/10/14 11:17:16;;;;;;;;;;;;;;;15.11;61.79;100496.47;5036322;28;19929;-73
2021/10/14 11:19:41;;;;;;;;;;;;;;;15.16;62.40;100483.78;5045575;28;19978;-73
2021/10/14 11:22:14;;;;;;;;;;;;;;;15.22;61.72;100480.78;5060867;28;20071;-73
2021/10/14 11:24:46;;;;;;;;;;;;;;;15.27;61.30;100488.47;5054178;28;19924;-72
2021/10/14 11:27:12;;;;;;;;;;;;;;;15.30;60.97;100477.66;5057991;28;19928;-72
2021/10/14 11:29:37;;;;;;;;;;;;;;;15.37;61.42;100473.72;5049026;28;19929;-74
2021/10/14 11:32:06;;;;;;;;;;;;;;;15.41;60.73;100469.09;5048836;28;19920;-73
2021/10/14 11:34:31;;;;;;;;;;;;;;;15.38;60.27;100469.25;5058386;28;19924;-74
2021/10/14 11:36:58;;;;;;;;;;;;;;;15.41;60.30;100469.09;5056815;28;19925;-73
2021/10/14 11:39:25;;;;;;;;;;;;;;;15.51;60.39;100464.09;5051705;28;20019;-73
2021/10/14 11:41:55;;;;;;;;;;;;;;;15.45;60.37;100458.16;5059019;28;20659;-73
2021/10/14 11:44:20;;;;;;;;;;;;;;;15.43;60.35;100456.56;5027502;28;20035;-74
2021/10/14 11:46:46;;;;;;;;;;;;;;;15.44;60.52;100458.28;5033609;28;19927;-72
2021/10/14 11:49:12;;;;;;;;;;;;;;;15.53;60.79;100456.88;5050682;28;19928;-74
2021/10/14 11:51:37;;;;;;;;;;;;;;;15.48;60.38;100450.97;5050572;28;20019;-73
2021/10/14 11:54:13;;;;;;;;;;;;;;;15.54;60.43;100447.97;5058987;28;19920;-71
2021/10/14 11:56:48;;;;;;;;;;;;;;;15.51;60.17;100449.00;5048753;28;19925;-73
2021/10/14 11:59:15;;;;;;;;;;;;;;;15.57;60.75;100438.00;5050211;28;19971;-73
2021/10/14 12:01:48;;;;;;;;;;;;;;;15.61;60.42;100438.69;5049505;28;19971;-73
2021/10/14 12:04:18;;;;;;;;;;;;;;;15.61;60.26;100434.22;5049288;28;19939;-72
2021/10/14 12:06:44;;;;;;;;;;;;;;;15.65;60.41;100430.44;5032513;28;19967;-72
2021/10/14 12:09:12;;;;;;;;;;;;;;;15.73;60.36;100422.03;5050527;28;20004;-73
2021/10/14 12:11:38;;;;;;;;;;;;;;;15.76;59.88;100421.00;5049430;28;19921;-72
2021/10/14 12:14:04;;;;;;;;;;;;;;;15.76;59.92;100426.31;5050121;28;19959;-73
2021/10/14 12:16:30;;;;;;;;;;;;;;;15.79;59.94;100411.00;5031626;28;20394;-73
2021/10/14 12:19:08;;;;;;;;;;;;;;;15.87;60.07;100407.88;5050300;28;19917;-72
2021/10/14 12:21:35;;;;;;;;;;;;;;;15.87;59.58;100407.88;5049249;28;19917;-73
2021/10/14 12:24:08;;;;;;;;;;;;;;;15.87;59.61;100397.25;5049808;28;19917;-73
2021/10/14 12:26:40;;;;;;;;;;;;;;;15.93;59.51;100399.53;5048629;28;19917;-73
2021/10/14 12:29:18;;;;;;;;;;;;;;;15.93;59.40;100404.00;5050123;28;19948;-73
2021/10/14 12:31:43;;;;;;;;;;;;;;;16.03;60.18;100386.53;5049567;28;20015;-74